sensor_id;sensor_type;location;lat;lon;timestamp;pressure;altitude;pressure_sealevel;temperature;humidity
41306;BME280;27051;50.376;19.152;2022-07-03T00:00:33;98779.38;;;16.64;63.59
41306;BME280;27051;50.376;19.152;2022-07-03T00:03:02;98781.41;;;16.70;63.60
41306;BME280;27051;50.376;19.152;2022-07-03T00:05:35;98774.05;;;16.71;63.53
41306;BME280;27051;50.376;19.152;2022-07-03T00:08:03;98778.08;;;16.67;63.45
41306;BME280;27051;50.376;19.152;2022-07-03T00:10:32;98768.92;;;16.66;63.51
41306;BME280;27051;50.376;19.152;2022-07-03T00:12:58;98766.80;;;16.65;63.65
41306;BME280;27051;50.376;19.152;2022-07-03T00:15:25;98766.94;;;16.63;63.59
41306;BME280;27051;50.376;19.152;2022-07-03T00:17:52;98761.90;;;16.61;63.56
41306;BME280;27051;50.376;19.152;2022-07-03T00:20:19;98762.40;;;16.57;63.66
41306;BME280;27051;50.376;19.152;2022-07-03T00:22:47;98754.63;;;16.46;63.54
41306;BME280;27051;50.376;19.152;2022-07-03T00:25:17;98756.52;;;16.42;63.73
41306;BME280;27051;50.376;19.152;2022-07-03T00:27:47;98759.69;;;16.34;63.87
41306;BME280;27051;50.376;19.152;2022-07-03T00:30:15;98759.23;;;16.42;64.11
41306;BME280;27051;50.376;19.152;2022-07-03T00:32:43;98761.84;;;16.48;63.86
41306;BME280;27051;50.376;19.152;2022-07-03T00:35:14;98767.98;;;16.55;63.91
41306;BME280;27051;50.376;19.152;2022-07-03T00:37:42;98762.23;;;16.46;63.72
41306;BME280;27051;50.376;19.152;2022-07-03T00:40:11;98760.06;;;16.46;63.84
41306;BME280;27051;50.376;19.152;2022-07-03T00:42:38;98766.97;;;16.53;63.93
41306;BME280;27051;50.376;19.152;2022-07-03T00:45:08;98765.84;;;16.54;63.83
41306;BME280;27051;50.376;19.152;2022-07-03T00:47:36;98768.41;;;16.57;63.69
41306;BME280;27051;50.376;19.152;2022-07-03T00:50:06;98768.33;;;16.53;63.81
41306;BME280;27051;50.376;19.152;2022-07-03T00:52:36;98769.03;;;16.60;63.97
41306;BME280;27051;50.376;19.152;2022-07-03T00:55:07;98768.11;;;16.62;63.91
41306;BME280;27051;50.376;19.152;2022-07-03T00:57:36;98766.94;;;16.63;63.83
41306;BME280;27051;50.376;19.152;2022-07-03T01:00:08;98770.44;;;16.63;63.86
41306;BME280;27051;50.376;19.152;2022-07-03T01:03:00;98760.78;;;16.66;63.86
41306;BME280;27051;50.376;19.152;2022-07-03T01:05:38;98766.67;;;16.58;63.87
41306;BME280;27051;50.376;19.152;2022-07-03T01:14:31;98749.41;;;16.57;64.04
41306;BME280;27051;50.376;19.152;2022-07-03T01:17:04;98752.47;;;16.55;63.85
41306;BME280;27051;50.376;19.152;2022-07-03T01:19:43;98755.02;;;16.44;64.11
41306;BME280;27051;50.376;19.152;2022-07-03T01:27:47;98745.55;;;16.35;64.10
41306;BME280;27051;50.376;19.152;2022-07-03T01:30:13;98738.63;;;16.27;64.20
41306;BME280;27051;50.376;19.152;2022-07-03T01:32:45;98735.64;;;16.23;64.29
41306;BME280;27051;50.376;19.152;2022-07-03T01:35:21;98735.84;;;16.11;64.25
41306;BME280;27051;50.376;19.152;2022-07-03T01:37:52;98733.19;;;16.04;64.33
41306;BME280;27051;50.376;19.152;2022-07-03T01:40:23;98730.19;;;16.00;64.49
41306;BME280;27051;50.376;19.152;2022-07-03T01:42:52;98733.77;;;16.04;64.65
41306;BME280;27051;50.376;19.152;2022-07-03T01:45:23;98723.48;;;16.13;64.74
41306;BME280;27051;50.376;19.152;2022-07-03T01:47:51;98728.37;;;16.17;64.45
41306;BME280;27051;50.376;19.152;2022-07-03T01:50:20;98727.55;;;16.13;64.43
41306;BME280;27051;50.376;19.152;2022-07-03T01:52:48;98719.91;;;16.09;64.56
41306;BME280;27051;50.376;19.152;2022-07-03T01:55:17;98718.84;;;16.14;64.53
41306;BME280;27051;50.376;19.152;2022-07-03T01:57:50;98726.36;;;16.01;64.20
41306;BME280;27051;50.376;19.152;2022-07-03T02:00:18;98726.80;;;15.93;64.59
41306;BME280;27051;50.376;19.152;2022-07-03T02:03:02;98726.86;;;15.87;64.49
41306;BME280;27051;50.376;19.152;2022-07-03T02:08:33;98720.17;;;15.81;64.80
41306;BME280;27051;50.376;19.152;2022-07-03T02:11:19;98716.59;;;15.77;64.68
41306;BME280;27051;50.376;19.152;2022-07-03T02:16:54;98706.77;;;15.78;64.81
41306;BME280;27051;50.376;19.152;2022-07-03T02:19:46;98703.02;;;15.67;64.96
41306;BME280;27051;50.376;19.152;2022-07-03T02:22:33;98707.02;;;15.54;64.93
41306;BME280;27051;50.376;19.152;2022-07-03T02:25:04;98698.55;;;15.46;65.17
41306;BME280;27051;50.376;19.152;2022-07-03T02:27:42;98701.55;;;15.50;65.42
41306;BME280;27051;50.376;19.152;2022-07-03T02:30:13;98705.19;;;15.58;65.21
41306;BME280;27051;50.376;19.152;2022-07-03T02:32:51;98708.03;;;15.65;65.51
41306;BME280;27051;50.376;19.152;2022-07-03T02:35:32;98712.73;;;15.68;65.33
41306;BME280;27051;50.376;19.152;2022-07-03T02:38:17;98717.46;;;15.71;65.38
41306;BME280;27051;50.376;19.152;2022-07-03T02:41:14;98711.27;;;15.80;65.47
41306;BME280;27051;50.376;19.152;2022-07-03T02:46:40;98706.96;;;15.89;65.49
41306;BME280;27051;50.376;19.152;2022-07-03T02:52:17;98695.63;;;15.83;65.45
41306;BME280;27051;50.376;19.152;2022-07-03T03:01:18;98683.48;;;15.87;65.51
41306;BME280;27051;50.376;19.152;2022-07-03T03:03:51;98692.03;;;15.99;65.63
41306;BME280;27051;50.376;19.152;2022-07-03T03:06:19;98688.75;;;15.99;65.63
41306;BME280;27051;50.376;19.152;2022-07-03T03:08:49;98692.23;;;16.00;65.40
41306;BME280;27051;50.376;19.152;2022-07-03T03:11:31;98699.02;;;16.00;65.46
41306;BME280;27051;50.376;19.152;2022-07-03T03:14:04;98697.27;;;15.98;65.51
41306;BME280;27051;50.376;19.152;2022-07-03T03:16:32;98691.17;;;15.95;65.59
41306;BME280;27051;50.376;19.152;2022-07-03T03:18:59;98699.73;;;15.97;65.60
41306;BME280;27051;50.376;19.152;2022-07-03T03:21:27;98702.75;;;15.92;65.67
41306;BME280;27051;50.376;19.152;2022-07-03T03:23:56;98699.59;;;15.99;65.68
41306;BME280;27051;50.376;19.152;2022-07-03T03:26:26;98700.45;;;16.03;65.71
41306;BME280;27051;50.376;19.152;2022-07-03T03:28:53;98703.31;;;16.01;65.63
41306;BME280;27051;50.376;19.152;2022-07-03T03:31:21;98706.06;;;16.14;65.93
41306;BME280;27051;50.376;19.152;2022-07-03T03:33:50;98694.71;;;16.18;65.83
41306;BME280;27051;50.376;19.152;2022-07-03T03:36:18;98688.61;;;16.25;65.91
41306;BME280;27051;50.376;19.152;2022-07-03T03:38:47;98696.24;;;16.29;65.83
41306;BME280;27051;50.376;19.152;2022-07-03T03:41:15;98700.16;;;16.32;65.86
41306;BME280;27051;50.376;19.152;2022-07-03T03:43:43;98687.11;;;16.41;65.99
41306;BME280;27051;50.376;19.152;2022-07-03T03:46:11;98683.78;;;16.51;65.88
41306;BME280;27051;50.376;19.152;2022-07-03T03:48:38;98688.82;;;16.49;65.76
41306;BME280;27051;50.376;19.152;2022-07-03T03:51:05;98687.70;;;16.54;65.87
41306;BME280;27051;50.376;19.152;2022-07-03T03:53:32;98695.69;;;16.56;65.97
41306;BME280;27051;50.376;19.152;2022-07-03T03:56:05;98699.72;;;16.66;66.00
41306;BME280;27051;50.376;19.152;2022-07-03T03:58:35;98701.93;;;16.70;65.89
41306;BME280;27051;50.376;19.152;2022-07-03T04:01:06;98695.19;;;16.74;65.76
41306;BME280;27051;50.376;19.152;2022-07-03T04:03:35;98685.75;;;16.77;66.09
41306;BME280;27051;50.376;19.152;2022-07-03T04:06:03;98686.56;;;16.78;65.88
41306;BME280;27051;50.376;19.152;2022-07-03T04:08:31;98680.63;;;16.82;66.04
41306;BME280;27051;50.376;19.152;2022-07-03T04:10:59;98675.97;;;16.82;66.04
41306;BME280;27051;50.376;19.152;2022-07-03T04:13:26;98671.00;;;16.88;66.28
41306;BME280;27051;50.376;19.152;2022-07-03T04:15:54;98672.81;;;16.93;66.26
41306;BME280;27051;50.376;19.152;2022-07-03T04:18:21;98669.01;;;16.98;66.44
41306;BME280;27051;50.376;19.152;2022-07-03T04:20:49;98673.53;;;17.04;66.51
41306;BME280;27051;50.376;19.152;2022-07-03T04:23:16;98675.93;;;17.09;66.28
41306;BME280;27051;50.376;19.152;2022-07-03T04:25:43;98677.29;;;17.09;66.29
41306;BME280;27051;50.376;19.152;2022-07-03T04:28:10;98674.34;;;17.21;66.52
41306;BME280;27051;50.376;19.152;2022-07-03T04:30:37;98681.75;;;17.24;66.44
41306;BME280;27051;50.376;19.152;2022-07-03T04:33:04;98680.13;;;17.33;66.65
41306;BME280;27051;50.376;19.152;2022-07-03T04:35:31;98670.75;;;17.44;66.66
41306;BME280;27051;50.376;19.152;2022-07-03T04:37:58;98663.04;;;17.49;66.68
41306;BME280;27051;50.376;19.152;2022-07-03T04:40:25;98664.73;;;17.61;66.71
41306;BME280;27051;50.376;19.152;2022-07-03T04:42:51;98669.84;;;17.66;66.81
41306;BME280;27051;50.376;19.152;2022-07-03T04:45:19;98670.64;;;17.84;66.92
41306;BME280;27051;50.376;19.152;2022-07-03T04:47:47;98673.70;;;17.99;66.93
41306;BME280;27051;50.376;19.152;2022-07-03T04:50:13;98670.90;;;18.12;66.76
41306;BME280;27051;50.376;19.152;2022-07-03T04:52:40;98673.53;;;18.26;66.67
41306;BME280;27051;50.376;19.152;2022-07-03T04:55:08;98669.94;;;18.38;66.48
41306;BME280;27051;50.376;19.152;2022-07-03T04:57:36;98674.15;;;18.53;66.44
41306;BME280;27051;50.376;19.152;2022-07-03T05:00:05;98673.05;;;18.64;66.25
41306;BME280;27051;50.376;19.152;2022-07-03T05:02:33;98673.88;;;18.72;66.11
41306;BME280;27051;50.376;19.152;2022-07-03T05:05:01;98677.78;;;18.75;65.96
41306;BME280;27051;50.376;19.152;2022-07-03T05:07:28;98683.70;;;18.80;66.08
41306;BME280;27051;50.376;19.152;2022-07-03T05:09:55;98685.62;;;18.80;65.88
41306;BME280;27051;50.376;19.152;2022-07-03T05:12:22;98684.08;;;18.82;65.77
41306;BME280;27051;50.376;19.152;2022-07-03T05:14:48;98679.27;;;18.85;65.94
41306;BME280;27051;50.376;19.152;2022-07-03T05:17:17;98677.36;;;18.93;65.81
41306;BME280;27051;50.376;19.152;2022-07-03T05:19:45;98674.10;;;19.04;65.94
41306;BME280;27051;50.376;19.152;2022-07-03T05:22:12;98675.33;;;19.14;65.85
41306;BME280;27051;50.376;19.152;2022-07-03T05:24:38;98676.73;;;19.25;65.72
41306;BME280;27051;50.376;19.152;2022-07-03T05:27:05;98676.36;;;19.30;65.54
41306;BME280;27051;50.376;19.152;2022-07-03T05:29:32;98679.31;;;19.38;65.47
41306;BME280;27051;50.376;19.152;2022-07-03T05:31:58;98679.94;;;19.45;65.70
41306;BME280;27051;50.376;19.152;2022-07-03T05:34:25;98678.41;;;19.55;65.62
41306;BME280;27051;50.376;19.152;2022-07-03T05:36:52;98675.91;;;19.66;65.66
41306;BME280;27051;50.376;19.152;2022-07-03T05:39:18;98680.07;;;19.77;65.41
41306;BME280;27051;50.376;19.152;2022-07-03T05:41:45;98674.05;;;19.88;65.29
41306;BME280;27051;50.376;19.152;2022-07-03T05:44:11;98675.03;;;19.93;64.95
41306;BME280;27051;50.376;19.152;2022-07-03T05:46:38;98670.36;;;20.01;65.15
41306;BME280;27051;50.376;19.152;2022-07-03T05:49:05;98679.34;;;20.16;64.99
41306;BME280;27051;50.376;19.152;2022-07-03T05:51:31;98682.67;;;20.26;64.50
41306;BME280;27051;50.376;19.152;2022-07-03T05:53:58;98672.14;;;20.39;64.62
41306;BME280;27051;50.376;19.152;2022-07-03T05:56:25;98676.22;;;20.50;64.57
41306;BME280;27051;50.376;19.152;2022-07-03T05:58:51;98680.74;;;20.59;64.31
41306;BME280;27051;50.376;19.152;2022-07-03T06:01:18;98685.81;;;20.64;64.12
41306;BME280;27051;50.376;19.152;2022-07-03T06:03:45;98678.77;;;20.70;64.15
41306;BME280;27051;50.376;19.152;2022-07-03T06:06:11;98683.23;;;20.76;64.03
41306;BME280;27051;50.376;19.152;2022-07-03T06:08:38;98683.44;;;20.80;63.92
41306;BME280;27051;50.376;19.152;2022-07-03T06:11:04;98678.94;;;20.86;63.74
41306;BME280;27051;50.376;19.152;2022-07-03T06:13:31;98680.47;;;20.94;63.76
41306;BME280;27051;50.376;19.152;2022-07-03T06:15:58;98675.59;;;21.04;63.57
41306;BME280;27051;50.376;19.152;2022-07-03T06:18:25;98687.28;;;21.12;63.15
41306;BME280;27051;50.376;19.152;2022-07-03T06:20:51;98678.49;;;21.12;62.81
41306;BME280;27051;50.376;19.152;2022-07-03T06:23:18;98680.41;;;21.19;63.05
41306;BME280;27051;50.376;19.152;2022-07-03T06:25:45;98679.02;;;21.26;62.99
41306;BME280;27051;50.376;19.152;2022-07-03T06:28:12;98676.06;;;21.39;62.74
41306;BME280;27051;50.376;19.152;2022-07-03T06:30:38;98676.84;;;21.43;62.30
41306;BME280;27051;50.376;19.152;2022-07-03T06:33:05;98672.53;;;21.46;61.97
41306;BME280;27051;50.376;19.152;2022-07-03T06:35:32;98670.92;;;21.56;62.24
41306;BME280;27051;50.376;19.152;2022-07-03T06:38:03;98673.39;;;21.69;61.95
41306;BME280;27051;50.376;19.152;2022-07-03T06:40:30;98673.11;;;21.82;61.67
41306;BME280;27051;50.376;19.152;2022-07-03T06:42:57;98670.47;;;21.98;61.67
41306;BME280;27051;50.376;19.152;2022-07-03T06:45:24;98660.57;;;22.22;61.31
41306;BME280;27051;50.376;19.152;2022-07-03T06:47:50;98664.15;;;22.38;60.96
41306;BME280;27051;50.376;19.152;2022-07-03T06:50:18;98655.89;;;22.41;60.47
41306;BME280;27051;50.376;19.152;2022-07-03T06:52:44;98653.73;;;22.44;59.90
41306;BME280;27051;50.376;19.152;2022-07-03T06:55:11;98652.81;;;22.58;60.02
41306;BME280;27051;50.376;19.152;2022-07-03T06:57:38;98649.73;;;22.52;59.38
41306;BME280;27051;50.376;19.152;2022-07-03T07:00:06;98651.45;;;22.58;59.69
41306;BME280;27051;50.376;19.152;2022-07-03T07:02:34;98650.39;;;22.67;59.42
41306;BME280;27051;50.376;19.152;2022-07-03T07:05:01;98650.73;;;22.69;59.05
41306;BME280;27051;50.376;19.152;2022-07-03T07:07:28;98654.23;;;22.73;59.65
41306;BME280;27051;50.376;19.152;2022-07-03T07:09:54;98648.35;;;22.75;59.29
41306;BME280;27051;50.376;19.152;2022-07-03T07:12:21;98638.80;;;22.90;58.87
41306;BME280;27051;50.376;19.152;2022-07-03T07:14:48;98637.33;;;23.01;58.43
41306;BME280;27051;50.376;19.152;2022-07-03T07:17:14;98634.59;;;23.01;57.84
41306;BME280;27051;50.376;19.152;2022-07-03T07:19:41;98637.74;;;23.15;57.71
41306;BME280;27051;50.376;19.152;2022-07-03T07:22:08;98635.20;;;23.31;57.41
41306;BME280;27051;50.376;19.152;2022-07-03T07:24:34;98638.17;;;23.44;57.23
41306;BME280;27051;50.376;19.152;2022-07-03T07:27:01;98634.31;;;23.53;56.96
41306;BME280;27051;50.376;19.152;2022-07-03T07:29:29;98635.33;;;23.67;56.96
41306;BME280;27051;50.376;19.152;2022-07-03T07:31:56;98628.94;;;23.77;56.20
41306;BME280;27051;50.376;19.152;2022-07-03T07:34:23;98636.13;;;23.94;57.08
41306;BME280;27051;50.376;19.152;2022-07-03T07:36:50;98633.51;;;24.11;56.66
41306;BME280;27051;50.376;19.152;2022-07-03T07:39:17;98631.95;;;24.21;55.99
41306;BME280;27051;50.376;19.152;2022-07-03T07:41:43;98623.13;;;24.34;56.45
41306;BME280;27051;50.376;19.152;2022-07-03T07:44:10;98630.48;;;24.52;55.95
41306;BME280;27051;50.376;19.152;2022-07-03T07:46:37;98632.02;;;24.65;55.51
41306;BME280;27051;50.376;19.152;2022-07-03T07:49:03;98626.75;;;24.74;55.62
41306;BME280;27051;50.376;19.152;2022-07-03T07:51:30;98625.61;;;24.83;53.72
41306;BME280;27051;50.376;19.152;2022-07-03T07:53:57;98626.98;;;24.83;54.94
41306;BME280;27051;50.376;19.152;2022-07-03T07:56:24;98621.29;;;24.82;54.97
41306;BME280;27051;50.376;19.152;2022-07-03T07:58:52;98618.27;;;24.97;55.12
41306;BME280;27051;50.376;19.152;2022-07-03T08:01:19;98622.09;;;25.11;54.67
41306;BME280;27051;50.376;19.152;2022-07-03T08:03:47;98621.98;;;25.18;53.85
41306;BME280;27051;50.376;19.152;2022-07-03T08:06:14;98617.30;;;25.27;53.84
41306;BME280;27051;50.376;19.152;2022-07-03T08:08:40;98616.15;;;25.44;53.77
41306;BME280;27051;50.376;19.152;2022-07-03T08:11:07;98619.88;;;25.62;51.93
41306;BME280;27051;50.376;19.152;2022-07-03T08:13:34;98617.64;;;25.65;52.10
41306;BME280;27051;50.376;19.152;2022-07-03T08:16:00;98608.62;;;25.65;52.03
41306;BME280;27051;50.376;19.152;2022-07-03T08:18:27;98604.80;;;25.59;51.67
41306;BME280;27051;50.376;19.152;2022-07-03T08:20:54;98603.88;;;25.65;52.02
41306;BME280;27051;50.376;19.152;2022-07-03T08:23:21;98604.42;;;25.85;51.31
41306;BME280;27051;50.376;19.152;2022-07-03T08:25:47;98604.95;;;26.04;51.35
41306;BME280;27051;50.376;19.152;2022-07-03T08:28:14;98601.47;;;26.33;51.25
41306;BME280;27051;50.376;19.152;2022-07-03T08:30:41;98610.94;;;26.40;50.71
41306;BME280;27051;50.376;19.152;2022-07-03T08:33:07;98610.07;;;26.43;50.32
41306;BME280;27051;50.376;19.152;2022-07-03T08:35:34;98608.70;;;26.51;50.47
41306;BME280;27051;50.376;19.152;2022-07-03T08:38:01;98611.27;;;26.67;49.88
41306;BME280;27051;50.376;19.152;2022-07-03T08:40:28;98609.22;;;26.83;49.88
41306;BME280;27051;50.376;19.152;2022-07-03T08:42:57;98610.78;;;27.05;49.49
41306;BME280;27051;50.376;19.152;2022-07-03T08:45:25;98614.79;;;27.17;49.63
41306;BME280;27051;50.376;19.152;2022-07-03T08:47:54;98611.74;;;27.28;49.17
41306;BME280;27051;50.376;19.152;2022-07-03T08:50:22;98607.28;;;27.39;48.64
41306;BME280;27051;50.376;19.152;2022-07-03T08:52:49;98607.29;;;27.52;48.68
41306;BME280;27051;50.376;19.152;2022-07-03T08:55:18;98604.03;;;27.61;48.74
41306;BME280;27051;50.376;19.152;2022-07-03T08:57:47;98603.98;;;27.95;48.50
41306;BME280;27051;50.376;19.152;2022-07-03T09:00:17;98607.20;;;28.11;47.64
41306;BME280;27051;50.376;19.152;2022-07-03T09:02:46;98609.30;;;28.20;47.62
41306;BME280;27051;50.376;19.152;2022-07-03T09:05:15;98608.94;;;28.30;47.35
41306;BME280;27051;50.376;19.152;2022-07-03T09:07:46;98604.94;;;28.44;46.98
41306;BME280;27051;50.376;19.152;2022-07-03T09:10:15;98604.69;;;28.51;46.52
41306;BME280;27051;50.376;19.152;2022-07-03T09:12:45;98600.59;;;28.56;46.04
41306;BME280;27051;50.376;19.152;2022-07-03T09:15:14;98590.99;;;28.65;45.02
41306;BME280;27051;50.376;19.152;2022-07-03T09:18:00;98590.99;;;28.65;45.02
41306;BME280;27051;50.376;19.152;2022-07-03T09:20:29;98591.78;;;28.92;45.68
41306;BME280;27051;50.376;19.152;2022-07-03T09:23:18;98598.91;;;28.98;45.43
41306;BME280;27051;50.376;19.152;2022-07-03T09:25:59;98593.97;;;28.97;45.08
41306;BME280;27051;50.376;19.152;2022-07-03T09:28:47;98597.59;;;29.34;44.61
41306;BME280;27051;50.376;19.152;2022-07-03T09:31:21;98582.83;;;30.32;44.12
41306;BME280;27051;50.376;19.152;2022-07-03T09:34:07;98582.83;;;30.32;44.12
41306;BME280;27051;50.376;19.152;2022-07-03T09:36:49;98576.79;;;31.07;43.67
41306;BME280;27051;50.376;19.152;2022-07-03T09:39:20;98582.94;;;31.96;41.55
41306;BME280;27051;50.376;19.152;2022-07-03T09:49:54;98570.34;;;33.57;38.36
41306;BME280;27051;50.376;19.152;2022-07-03T09:52:33;98564.34;;;34.00;37.30
41306;BME280;27051;50.376;19.152;2022-07-03T10:00:23;98565.40;;;35.37;36.22
41306;BME280;27051;50.376;19.152;2022-07-03T10:05:32;98558.25;;;35.68;33.97
41306;BME280;27051;50.376;19.152;2022-07-03T10:08:05;98561.56;;;35.94;33.90
41306;BME280;27051;50.376;19.152;2022-07-03T10:10:38;98552.95;;;35.76;33.24
41306;BME280;27051;50.376;19.152;2022-07-03T10:13:08;98550.16;;;35.76;33.73
41306;BME280;27051;50.376;19.152;2022-07-03T10:15:37;98553.13;;;36.10;33.44
41306;BME280;27051;50.376;19.152;2022-07-03T10:18:06;98549.28;;;36.34;31.47
41306;BME280;27051;50.376;19.152;2022-07-03T10:20:45;98549.11;;;36.66;31.62
41306;BME280;27051;50.376;19.152;2022-07-03T10:23:11;98543.57;;;37.05;30.80
41306;BME280;27051;50.376;19.152;2022-07-03T10:25:42;98545.58;;;37.27;31.15
41306;BME280;27051;50.376;19.152;2022-07-03T10:28:13;98537.14;;;37.55;30.27
41306;BME280;27051;50.376;19.152;2022-07-03T10:30:42;98536.07;;;37.75;29.83
41306;BME280;27051;50.376;19.152;2022-07-03T10:33:10;98527.41;;;37.79;29.86
41306;BME280;27051;50.376;19.152;2022-07-03T10:35:48;98522.71;;;38.10;29.55
41306;BME280;27051;50.376;19.152;2022-07-03T10:43:45;98517.12;;;38.87;26.19
41306;BME280;27051;50.376;19.152;2022-07-03T10:46:17;98513.08;;;38.64;26.41
41306;BME280;27051;50.376;19.152;2022-07-03T10:48:57;98502.18;;;38.91;25.83
41306;BME280;27051;50.376;19.152;2022-07-03T10:51:50;98509.71;;;39.32;26.00
41306;BME280;27051;50.376;19.152;2022-07-03T10:54:22;98511.70;;;39.25;26.14
41306;BME280;27051;50.376;19.152;2022-07-03T11:05:22;98500.16;;;39.90;25.03
41306;BME280;27051;50.376;19.152;2022-07-03T11:18:32;98488.62;;;39.20;24.71
41306;BME280;27051;50.376;19.152;2022-07-03T11:21:08;98487.53;;;38.50;24.83
41306;BME280;27051;50.376;19.152;2022-07-03T11:24:02;98496.19;;;37.70;25.36
41306;BME280;27051;50.376;19.152;2022-07-03T11:26:31;98492.66;;;37.64;25.74
41306;BME280;27051;50.376;19.152;2022-07-03T11:28:57;98486.53;;;38.65;25.26
41306;BME280;27051;50.376;19.152;2022-07-03T11:31:24;98485.80;;;39.69;24.59
41306;BME280;27051;50.376;19.152;2022-07-03T11:41:41;98478.53;;;39.05;23.84
41306;BME280;27051;50.376;19.152;2022-07-03T11:44:06;98472.09;;;39.72;23.74
41306;BME280;27051;50.376;19.152;2022-07-03T11:46:36;98474.73;;;40.85;23.44
41306;BME280;27051;50.376;19.152;2022-07-03T11:49:10;98475.55;;;41.85;22.95
41306;BME280;27051;50.376;19.152;2022-07-03T11:51:41;98470.64;;;42.88;22.39
41306;BME280;27051;50.376;19.152;2022-07-03T11:54:10;98472.97;;;43.55;21.18
41306;BME280;27051;50.376;19.152;2022-07-03T11:56:37;98463.81;;;43.33;21.16
41306;BME280;27051;50.376;19.152;2022-07-03T11:59:05;98462.41;;;43.70;20.56
41306;BME280;27051;50.376;19.152;2022-07-03T12:01:34;98461.27;;;44.25;19.49
41306;BME280;27051;50.376;19.152;2022-07-03T12:04:11;98459.48;;;44.96;19.90
41306;BME280;27051;50.376;19.152;2022-07-03T12:06:51;98450.81;;;45.34;18.54
41306;BME280;27051;50.376;19.152;2022-07-03T12:09:29;98455.93;;;45.35;18.91
41306;BME280;27051;50.376;19.152;2022-07-03T12:14:51;98449.00;;;46.26;17.90
41306;BME280;27051;50.376;19.152;2022-07-03T12:17:22;98454.09;;;46.35;17.64
41306;BME280;27051;50.376;19.152;2022-07-03T12:19:55;98452.92;;;46.80;17.43
41306;BME280;27051;50.376;19.152;2022-07-03T12:22:32;98451.23;;;47.10;17.00
41306;BME280;27051;50.376;19.152;2022-07-03T12:25:06;98446.31;;;46.19;17.06
41306;BME280;27051;50.376;19.152;2022-07-03T12:27:41;98451.85;;;45.69;17.70
41306;BME280;27051;50.376;19.152;2022-07-03T12:30:12;98443.02;;;45.02;17.35
41306;BME280;27051;50.376;19.152;2022-07-03T12:32:45;98440.53;;;45.30;17.51
41306;BME280;27051;50.376;19.152;2022-07-03T12:35:12;98441.42;;;44.85;17.62
41306;BME280;27051;50.376;19.152;2022-07-03T12:37:41;98440.56;;;45.46;17.95
41306;BME280;27051;50.376;19.152;2022-07-03T12:40:10;98440.29;;;45.99;17.41
41306;BME280;27051;50.376;19.152;2022-07-03T12:42:51;98441.05;;;46.57;17.11
41306;BME280;27051;50.376;19.152;2022-07-03T12:45:23;98439.41;;;47.05;17.18
41306;BME280;27051;50.376;19.152;2022-07-03T12:48:02;98439.76;;;47.27;16.55
41306;BME280;27051;50.376;19.152;2022-07-03T12:50:44;98430.95;;;47.85;16.22
41306;BME280;27051;50.376;19.152;2022-07-03T12:53:31;98429.38;;;48.28;15.74
41306;BME280;27051;50.376;19.152;2022-07-03T12:56:02;98418.48;;;47.98;15.53
41306;BME280;27051;50.376;19.152;2022-07-03T12:58:30;98420.25;;;48.02;15.63
41306;BME280;27051;50.376;19.152;2022-07-03T13:01:02;98412.34;;;48.29;15.94
41306;BME280;27051;50.376;19.152;2022-07-03T13:03:31;98419.42;;;48.84;15.70
41306;BME280;27051;50.376;19.152;2022-07-03T13:06:01;98417.08;;;49.49;15.14
41306;BME280;27051;50.376;19.152;2022-07-03T13:08:28;98413.38;;;49.77;14.79
41306;BME280;27051;50.376;19.152;2022-07-03T13:13:25;98407.47;;;48.96;14.76
41306;BME280;27051;50.376;19.152;2022-07-03T13:15:53;98403.28;;;48.50;15.06
41306;BME280;27051;50.376;19.152;2022-07-03T13:18:19;98399.98;;;48.54;14.87
41306;BME280;27051;50.376;19.152;2022-07-03T13:20:46;98393.44;;;48.80;14.60
41306;BME280;27051;50.376;19.152;2022-07-03T13:23:13;98395.23;;;48.66;14.18
41306;BME280;27051;50.376;19.152;2022-07-03T13:25:40;98396.05;;;48.58;14.31
41306;BME280;27051;50.376;19.152;2022-07-03T13:28:11;98390.14;;;48.74;14.32
41306;BME280;27051;50.376;19.152;2022-07-03T13:30:41;98390.80;;;48.64;14.50
41306;BME280;27051;50.376;19.152;2022-07-03T13:33:09;98387.34;;;48.37;14.48
41306;BME280;27051;50.376;19.152;2022-07-03T13:35:36;98389.75;;;48.41;14.33
41306;BME280;27051;50.376;19.152;2022-07-03T13:38:04;98388.91;;;48.02;14.65
41306;BME280;27051;50.376;19.152;2022-07-03T13:40:30;98380.98;;;47.92;14.50
41306;BME280;27051;50.376;19.152;2022-07-03T13:42:57;98379.40;;;47.90;14.45
41306;BME280;27051;50.376;19.152;2022-07-03T13:45:24;98378.45;;;47.60;14.70
41306;BME280;27051;50.376;19.152;2022-07-03T13:47:51;98375.34;;;48.02;14.59
41306;BME280;27051;50.376;19.152;2022-07-03T13:50:18;98371.28;;;47.78;14.70
41306;BME280;27051;50.376;19.152;2022-07-03T13:52:45;98369.48;;;46.68;14.92
41306;BME280;27051;50.376;19.152;2022-07-03T13:55:12;98376.52;;;45.27;15.50
41306;BME280;27051;50.376;19.152;2022-07-03T13:57:38;98364.41;;;43.81;16.20
41306;BME280;27051;50.376;19.152;2022-07-03T14:00:07;98361.77;;;42.74;16.77
41306;BME280;27051;50.376;19.152;2022-07-03T14:02:36;98362.30;;;42.23;17.15
41306;BME280;27051;50.376;19.152;2022-07-03T14:05:03;98370.19;;;41.76;17.50
41306;BME280;27051;50.376;19.152;2022-07-03T14:07:43;98361.72;;;41.15;18.14
41306;BME280;27051;50.376;19.152;2022-07-03T14:10:10;98359.55;;;40.42;18.59
41306;BME280;27051;50.376;19.152;2022-07-03T14:12:37;98360.97;;;39.34;18.80
41306;BME280;27051;50.376;19.152;2022-07-03T14:15:05;98355.21;;;38.59;19.82
41306;BME280;27051;50.376;19.152;2022-07-03T14:17:33;98354.89;;;38.20;20.07
41306;BME280;27051;50.376;19.152;2022-07-03T14:20:00;98353.22;;;37.83;20.71
41306;BME280;27051;50.376;19.152;2022-07-03T14:22:26;98356.70;;;37.47;21.21
41306;BME280;27051;50.376;19.152;2022-07-03T14:24:53;98365.20;;;36.84;21.48
41306;BME280;27051;50.376;19.152;2022-07-03T14:27:20;98349.31;;;36.24;22.32